createdAt,value
2019-02-24T00:01:46.631Z,20.50
2019-02-24T00:04:15.447Z,20.80
2019-02-24T00:06:43.972Z,21.97
2019-02-24T00:09:13.404Z,19.70
2019-02-24T00:11:42.211Z,18.80
2019-02-24T00:14:12.427Z,17.20
2019-02-24T00:16:41.321Z,18.67
2019-02-24T00:19:09.923Z,17.20
2019-02-24T00:21:40.592Z,20.03
2019-02-24T00:24:08.936Z,17.07
2019-02-24T00:26:37.558Z,17.10
2019-02-24T00:29:06.214Z,17.60
2019-02-24T00:31:34.797Z,15.97
2019-02-24T00:34:03.398Z,13.67
2019-02-24T00:36:35.193Z,13.33
2019-02-24T00:39:04.555Z,13.60
2019-02-24T00:41:33.028Z,16.73
2019-02-24T00:44:01.517Z,12.57
2019-02-24T00:46:30.085Z,12.87
2019-02-24T00:48:58.673Z,12.73
2019-02-24T00:51:27.182Z,13.57
2019-02-24T00:53:56.028Z,13.50
2019-02-24T00:56:24.918Z,13.30
2019-02-24T00:58:53.483Z,14.50
2019-02-24T01:01:22.277Z,13.70
2019-02-24T01:03:50.743Z,12.47
2019-02-24T01:06:39.000Z,12.10
2019-02-24T01:09:07.720Z,13.23
2019-02-24T01:11:37.978Z,12.90
2019-02-24T01:14:06.641Z,12.00
2019-02-24T01:16:35.171Z,13.10
2019-02-24T01:19:03.678Z,12.00
2019-02-24T01:21:32.193Z,13.70
2019-02-24T01:24:00.968Z,14.70
2019-02-24T01:26:29.563Z,14.27
2019-02-24T01:28:59.381Z,14.73
2019-02-24T01:31:27.879Z,14.97
2019-02-24T01:33:56.504Z,13.87
2019-02-24T01:36:25.024Z,15.20
2019-02-24T01:38:53.478Z,15.00
2019-02-24T01:41:22.386Z,15.40
2019-02-24T01:43:50.839Z,14.13
2019-02-24T01:46:20.443Z,14.37
2019-02-24T01:48:54.744Z,14.80
2019-02-24T01:51:24.323Z,12.80
2019-02-24T01:53:52.855Z,12.70
2019-02-24T01:56:21.808Z,13.70
2019-02-24T01:58:50.414Z,12.73
2019-02-24T02:01:19.534Z,13.10
2019-02-24T02:03:48.110Z,12.17
2019-02-24T02:06:16.741Z,13.40
2019-02-24T02:08:45.658Z,11.50
2019-02-24T02:11:14.864Z,12.50
2019-02-24T02:13:43.473Z,13.30
2019-02-24T02:16:12.269Z,14.47
2019-02-24T02:18:40.872Z,13.23
2019-02-24T02:21:09.423Z,13.10
2019-02-24T02:23:38.067Z,12.47
2019-02-24T02:26:06.834Z,11.33
2019-02-24T02:28:43.611Z,12.27
2019-02-24T02:31:05.846Z,11.90
2019-02-24T02:33:37.545Z,11.50
2019-02-24T02:36:08.669Z,11.40
2019-02-24T02:38:37.332Z,12.57
2019-02-24T02:41:05.945Z,13.20
2019-02-24T02:43:34.421Z,13.13
2019-02-24T02:46:06.275Z,12.50
2019-02-24T02:48:34.822Z,12.20
2019-02-24T02:51:03.727Z,12.50
2019-02-24T02:53:32.567Z,11.50
2019-02-24T02:56:01.144Z,10.67
2019-02-24T02:58:29.760Z,11.10
2019-02-24T03:00:58.502Z,11.73
2019-02-24T03:03:27.015Z,10.43
2019-02-24T03:05:57.147Z,10.10
2019-02-24T03:08:27.672Z,10.87
2019-02-24T03:10:56.235Z,9.90
2019-02-24T03:13:24.731Z,9.50
2019-02-24T03:15:55.250Z,9.60
2019-02-24T03:18:23.954Z,10.47
2019-02-24T03:20:52.498Z,8.70
2019-02-24T03:23:21.483Z,8.67
2019-02-24T03:25:51.702Z,8.17
2019-02-24T03:28:20.169Z,9.10
2019-02-24T03:30:48.792Z,8.10
2019-02-24T03:33:17.553Z,9.93
2019-02-24T03:35:46.155Z,8.57
2019-02-24T03:38:14.593Z,9.10
2019-02-24T03:40:43.433Z,8.83
2019-02-24T03:43:12.081Z,7.80
2019-02-24T03:45:40.602Z,8.60
2019-02-24T03:48:09.153Z,8.13
2019-02-24T03:50:37.667Z,9.57
2019-02-24T03:53:06.184Z,10.40
2019-02-24T03:55:35.045Z,10.80
2019-02-24T03:58:05.026Z,9.77
2019-02-24T04:00:33.807Z,10.20
2019-02-24T04:03:02.324Z,8.87
2019-02-24T04:05:30.769Z,10.03
2019-02-24T04:07:59.208Z,10.13
2019-02-24T04:10:27.694Z,9.93
2019-02-24T04:12:56.274Z,9.17
2019-02-24T04:15:24.809Z,10.07
2019-02-24T04:17:53.296Z,10.10
2019-02-24T04:20:21.769Z,10.27
2019-02-24T04:22:50.409Z,10.10
2019-02-24T04:25:18.895Z,10.07
2019-02-24T04:27:47.420Z,8.93
2019-02-24T04:30:16.232Z,10.60
2019-02-24T04:32:44.972Z,10.53
2019-02-24T04:35:13.430Z,9.57
2019-02-24T04:37:41.905Z,9.80
2019-02-24T04:40:10.349Z,10.77
2019-02-24T04:42:38.935Z,10.23
2019-02-24T04:45:07.468Z,10.50
2019-02-24T04:47:36.046Z,10.47
2019-02-24T04:50:05.383Z,10.00
2019-02-24T04:52:33.845Z,9.73
2019-02-24T04:55:02.350Z,9.83
2019-02-24T04:57:30.808Z,9.57
2019-02-24T04:59:59.255Z,10.30
2019-02-24T05:02:27.731Z,10.57
2019-02-24T05:04:56.223Z,10.90
2019-02-24T05:07:24.699Z,10.50
2019-02-24T05:09:53.527Z,10.03
2019-02-24T05:12:22.015Z,9.80
2019-02-24T05:14:50.502Z,10.67
2019-02-24T05:17:18.992Z,11.00
2019-02-24T05:19:47.433Z,9.90
2019-02-24T05:22:15.926Z,10.03
2019-02-24T05:24:44.442Z,10.70
2019-02-24T05:27:12.970Z,11.60
2019-02-24T05:29:46.017Z,9.93
2019-02-24T05:32:11.959Z,10.80
2019-02-24T05:34:40.399Z,11.87
2019-02-24T05:37:09.133Z,11.10
2019-02-24T05:39:37.653Z,11.00
2019-02-24T05:42:06.152Z,10.87
2019-02-24T05:44:34.674Z,10.33
2019-02-24T05:47:03.119Z,10.20
2019-02-24T05:49:31.830Z,10.53
2019-02-24T05:52:00.565Z,10.43
2019-02-24T05:54:29.354Z,10.60
2019-02-24T05:56:57.839Z,10.40
2019-02-24T05:59:26.357Z,10.97
2019-02-24T06:01:54.812Z,10.07
2019-02-24T06:04:23.323Z,11.43
2019-02-24T06:06:52.036Z,9.93
2019-02-24T06:09:20.720Z,10.83
2019-02-24T06:11:49.451Z,11.10
2019-02-24T06:14:17.970Z,11.57
2019-02-24T06:16:46.464Z,10.90
2019-02-24T06:19:15.179Z,11.10
2019-02-24T06:21:43.674Z,11.10
2019-02-24T06:24:13.699Z,10.60
2019-02-24T06:26:42.163Z,10.23
2019-02-24T06:29:10.658Z,9.97
2019-02-24T06:31:39.153Z,11.43
2019-02-24T06:34:07.671Z,9.97
2019-02-24T06:36:36.155Z,11.10
2019-02-24T06:39:05.384Z,10.83
2019-02-24T06:41:34.108Z,10.60
2019-02-24T06:44:02.847Z,10.63
2019-02-24T06:46:31.688Z,11.00
2019-02-24T06:49:00.182Z,10.67
2019-02-24T06:51:28.649Z,11.40
2019-02-24T06:53:57.097Z,11.50
2019-02-24T06:56:25.531Z,10.60
2019-02-24T06:58:54.046Z,11.03
2019-02-24T07:01:22.497Z,10.93
2019-02-24T07:03:50.946Z,10.37
2019-02-24T07:06:19.387Z,10.93
2019-02-24T07:08:47.851Z,11.23
2019-02-24T07:11:16.567Z,10.83
2019-02-24T07:13:45.022Z,9.87
2019-02-24T07:16:13.460Z,10.13
2019-02-24T07:18:41.911Z,12.40
2019-02-24T07:21:10.358Z,11.70
2019-02-24T07:23:38.909Z,12.40
2019-02-24T07:26:07.359Z,13.07
2019-02-24T07:28:35.818Z,13.37
2019-02-24T07:31:04.510Z,17.40
2019-02-24T07:33:33.009Z,18.53
2019-02-24T07:36:01.523Z,18.80
2019-02-24T07:38:30.070Z,18.87
2019-02-24T07:40:58.666Z,18.40
2019-02-24T07:43:27.123Z,18.40
2019-02-24T07:45:55.841Z,17.00
2019-02-24T07:48:24.571Z,16.50
2019-02-24T07:50:53.023Z,16.33
2019-02-24T07:53:21.745Z,15.57
2019-02-24T07:55:50.277Z,14.33
2019-02-24T07:58:18.809Z,14.73
2019-02-24T08:00:47.286Z,14.67
2019-02-24T08:03:15.739Z,13.60
2019-02-24T08:05:44.527Z,14.10
2019-02-24T08:08:16.398Z,13.33
2019-02-24T08:10:43.915Z,12.77
2019-02-24T08:13:12.424Z,13.40
2019-02-24T08:15:40.865Z,11.93
2019-02-24T08:18:09.312Z,12.60
2019-02-24T08:20:37.901Z,13.03
2019-02-24T08:23:06.506Z,13.20
2019-02-24T08:25:35.021Z,13.17
2019-02-24T08:28:03.495Z,11.93
2019-02-24T08:30:40.989Z,12.73
2019-02-24T08:33:02.678Z,13.73
2019-02-24T08:35:31.476Z,14.47
2019-02-24T08:38:00.347Z,11.67
2019-02-24T08:40:29.076Z,11.43
2019-02-24T08:42:57.603Z,13.53
2019-02-24T08:45:26.082Z,11.50
2019-02-24T08:47:54.533Z,10.40
2019-02-24T08:50:22.995Z,10.87
2019-02-24T08:52:51.441Z,9.90
2019-02-24T08:55:19.913Z,10.20
2019-02-24T08:57:48.636Z,11.00
2019-02-24T09:00:17.372Z,9.43
2019-02-24T09:02:45.861Z,9.70
2019-02-24T09:05:14.316Z,8.90
2019-02-24T09:07:43.024Z,9.63
2019-02-24T09:10:11.716Z,8.73
2019-02-24T09:12:40.411Z,9.43
2019-02-24T09:15:12.617Z,8.57
2019-02-24T09:17:41.343Z,8.33
2019-02-24T09:20:11.699Z,8.23
2019-02-24T09:22:40.224Z,8.10
2019-02-24T09:25:09.103Z,8.60
2019-02-24T09:27:37.811Z,7.80
2019-02-24T09:30:13.390Z,8.00
2019-02-24T09:32:50.421Z,6.97
2019-02-24T09:35:19.339Z,7.20
2019-02-24T09:37:47.774Z,7.50
2019-02-24T09:40:16.495Z,7.67
2019-02-24T09:42:45.200Z,7.77
2019-02-24T09:45:13.904Z,6.93
2019-02-24T09:47:46.662Z,6.57
2019-02-24T09:50:12.784Z,6.50
2019-02-24T09:52:41.522Z,5.90
2019-02-24T09:55:10.493Z,5.20
2019-02-24T09:57:38.952Z,5.43
2019-02-24T10:00:12.577Z,5.13
2019-02-24T10:02:41.039Z,5.73
2019-02-24T10:05:09.615Z,5.43
2019-02-24T10:07:38.178Z,5.43
2019-02-24T10:13:06.086Z,5.00
2019-02-24T10:15:34.767Z,5.43
2019-02-24T10:18:03.238Z,5.77
2019-02-24T10:20:31.862Z,5.53
2019-02-24T10:23:00.323Z,5.87
2019-02-24T10:25:28.783Z,6.30
2019-02-24T10:27:57.515Z,6.23
2019-02-24T10:30:25.954Z,5.30
2019-02-24T10:32:54.745Z,6.10
2019-02-24T10:35:23.472Z,6.07
2019-02-24T10:37:52.067Z,7.30
2019-02-24T10:40:20.664Z,6.37
2019-02-24T10:42:49.201Z,6.30
2019-02-24T10:45:19.072Z,6.20
2019-02-24T10:47:47.587Z,6.20
2019-02-24T10:50:17.229Z,7.17
2019-02-24T10:52:46.046Z,6.07
2019-02-24T10:55:14.759Z,6.93
2019-02-24T10:57:43.338Z,5.93
2019-02-24T11:00:14.318Z,5.87
2019-02-24T11:02:43.198Z,6.23
2019-02-24T11:05:11.784Z,6.10
2019-02-24T11:07:40.245Z,6.47
2019-02-24T11:10:09.739Z,6.30
2019-02-24T11:12:38.256Z,5.30
2019-02-24T11:15:09.567Z,5.07
2019-02-24T11:17:38.159Z,4.97
2019-02-24T11:20:12.164Z,5.00
2019-02-24T11:22:40.689Z,5.17
2019-02-24T11:25:10.766Z,4.97
2019-02-24T11:27:39.243Z,5.50
2019-02-24T11:30:10.653Z,5.30
2019-02-24T11:32:39.381Z,5.30
2019-02-24T11:35:11.925Z,5.80
2019-02-24T11:37:40.424Z,5.30
2019-02-24T11:40:14.157Z,4.97
2019-02-24T11:42:42.616Z,5.00
2019-02-24T11:45:11.427Z,4.93
2019-02-24T11:47:40.138Z,5.10
2019-02-24T11:50:10.154Z,5.50
2019-02-24T11:52:38.943Z,5.00
2019-02-24T11:55:09.281Z,4.73
2019-02-24T11:57:38.107Z,5.10
2019-02-24T12:00:09.722Z,5.10
2019-02-24T12:02:38.222Z,4.40
2019-02-24T12:05:08.314Z,5.10
2019-02-24T12:07:36.780Z,5.20
2019-02-24T12:10:11.538Z,4.93
2019-02-24T12:12:40.010Z,5.20
2019-02-24T12:15:15.231Z,5.07
2019-02-24T12:17:43.806Z,5.00
2019-02-24T12:20:13.895Z,4.70
2019-02-24T12:25:29.965Z,5.20
2019-02-24T12:27:58.561Z,5.13
2019-02-24T12:30:27.459Z,5.37
2019-02-24T12:32:55.948Z,5.33
2019-02-24T12:35:24.451Z,5.60
2019-02-24T12:37:53.371Z,4.77
2019-02-24T12:40:22.202Z,4.73
2019-02-24T12:42:50.716Z,5.43
2019-02-24T12:45:19.289Z,5.10
2019-02-24T12:47:47.796Z,5.70
2019-02-24T12:50:17.919Z,5.73
2019-02-24T12:52:46.444Z,5.63
2019-02-24T12:55:14.931Z,5.10
2019-02-24T12:57:43.824Z,5.03
2019-02-24T13:00:21.468Z,4.60
2019-02-24T13:02:49.942Z,5.33
2019-02-24T13:05:18.750Z,5.30
2019-02-24T13:07:47.560Z,5.10
2019-02-24T13:10:17.313Z,5.60
2019-02-24T13:12:46.151Z,5.60
2019-02-24T13:15:15.069Z,4.83
2019-02-24T13:17:43.954Z,5.30
2019-02-24T13:20:13.135Z,5.07
2019-02-24T13:22:41.837Z,4.73
2019-02-24T13:25:14.388Z,4.27
2019-02-24T13:27:43.117Z,4.20
2019-02-24T13:30:14.254Z,4.70
2019-02-24T13:32:42.726Z,4.87
2019-02-24T13:35:11.479Z,3.97
2019-02-24T13:37:43.103Z,3.87
2019-02-24T13:40:13.743Z,3.50
2019-02-24T13:42:42.692Z,3.73
2019-02-24T13:45:14.440Z,4.60
2019-02-24T13:47:43.395Z,3.87
2019-02-24T13:50:12.092Z,3.90
2019-02-24T13:52:40.632Z,3.90
2019-02-24T13:55:11.480Z,3.47
2019-02-24T13:57:40.282Z,4.17
2019-02-24T14:00:12.358Z,4.07
2019-02-24T14:02:41.295Z,4.20
2019-02-24T14:05:13.496Z,4.60
2019-02-24T14:07:41.979Z,4.03
2019-02-24T14:10:14.431Z,4.40
2019-02-24T14:12:42.926Z,3.97
2019-02-24T14:15:15.834Z,4.13
2019-02-24T14:17:44.550Z,3.67
2019-02-24T14:20:15.091Z,3.60
2019-02-24T14:22:43.611Z,3.73
2019-02-24T14:25:13.300Z,3.80
2019-02-24T14:27:41.831Z,3.10
2019-02-24T14:30:17.902Z,3.53
2019-02-24T14:32:46.367Z,3.40
2019-02-24T14:35:20.050Z,3.10
2019-02-24T14:37:48.577Z,3.37
2019-02-24T14:40:17.042Z,3.47
2019-02-24T14:42:45.824Z,4.33
2019-02-24T14:45:18.947Z,3.57
2019-02-24T14:47:47.754Z,3.63
2019-02-24T14:50:16.459Z,3.90
2019-02-24T14:52:44.990Z,4.80
2019-02-24T14:55:14.553Z,3.20
2019-02-24T14:57:43.021Z,4.20
2019-02-24T15:00:19.658Z,4.03
2019-02-24T15:02:48.375Z,3.43
2019-02-24T15:05:17.070Z,3.90
2019-02-24T15:07:45.651Z,3.90
2019-02-24T15:10:22.892Z,3.43
2019-02-24T15:12:51.410Z,3.53
2019-02-24T15:15:32.887Z,4.43
2019-02-24T15:18:00.768Z,3.73
2019-02-24T15:20:29.263Z,3.67
2019-02-24T15:22:57.748Z,3.57
2019-02-24T15:25:26.457Z,3.97
2019-02-24T15:27:55.199Z,4.20
2019-02-24T15:30:32.243Z,3.70
2019-02-24T15:33:00.747Z,3.97
2019-02-24T15:35:29.378Z,3.10
2019-02-24T15:37:58.145Z,4.00
2019-02-24T15:40:26.736Z,3.70
2019-02-24T15:42:55.198Z,3.60
2019-02-24T15:45:24.014Z,3.37
2019-02-24T15:47:52.538Z,3.43
2019-02-24T15:50:21.187Z,3.40
2019-02-24T15:52:49.714Z,3.73
2019-02-24T15:55:18.577Z,3.10
2019-02-24T15:57:47.084Z,3.00
2019-02-24T16:00:19.960Z,3.40
2019-02-24T16:02:48.735Z,3.23
2019-02-24T16:05:17.291Z,3.70
2019-02-24T16:07:45.830Z,3.07
2019-02-24T16:10:21.622Z,2.77
2019-02-24T16:12:50.410Z,3.30
2019-02-24T16:15:24.538Z,2.93
2019-02-24T16:17:53.028Z,3.20
2019-02-24T16:20:26.746Z,3.40
2019-02-24T16:22:55.292Z,3.33
2019-02-24T16:25:24.100Z,2.80
2019-02-24T16:27:53.390Z,3.30
2019-02-24T16:30:21.852Z,2.83
2019-02-24T16:32:50.338Z,3.60
2019-02-24T16:35:19.138Z,3.10
2019-02-24T16:37:47.756Z,3.13
2019-02-24T16:40:18.595Z,3.03
2019-02-24T16:42:47.237Z,2.80
2019-02-24T16:45:16.439Z,3.87
2019-02-24T16:47:44.872Z,3.30
2019-02-24T16:50:24.143Z,3.60
2019-02-24T16:52:53.121Z,4.30
2019-02-24T16:55:21.973Z,3.70
2019-02-24T16:57:50.601Z,4.10
2019-02-24T17:00:27.660Z,4.30
2019-02-24T17:02:56.215Z,4.37
2019-02-24T17:05:24.769Z,4.70
2019-02-24T17:07:53.262Z,4.30
2019-02-24T17:10:26.684Z,4.57
2019-02-24T17:12:55.199Z,4.30
2019-02-24T17:15:23.647Z,4.53
2019-02-24T17:17:52.379Z,4.77
2019-02-24T17:20:22.171Z,4.47
2019-02-24T17:22:50.936Z,4.33
2019-02-24T17:25:19.682Z,4.47
2019-02-24T17:27:48.134Z,5.13
2019-02-24T17:30:17.127Z,4.23
2019-02-24T17:32:45.545Z,4.87
2019-02-24T17:35:14.231Z,5.40
2019-02-24T17:37:42.660Z,5.33
2019-02-24T17:40:19.602Z,4.80
2019-02-24T17:42:48.339Z,5.57
2019-02-24T17:45:16.861Z,5.13
2019-02-24T17:47:45.404Z,5.30
2019-02-24T17:50:17.520Z,4.93
2019-02-24T17:52:45.962Z,5.53
2019-02-24T17:55:16.028Z,6.00
2019-02-24T17:57:44.792Z,5.67
2019-02-24T18:00:19.883Z,5.87
2019-02-24T18:02:48.351Z,7.23
2019-02-24T18:05:17.074Z,7.20
2019-02-24T18:07:45.804Z,8.57
2019-02-24T18:10:14.318Z,9.77
2019-02-24T18:12:42.807Z,8.80
2019-02-24T18:15:12.776Z,9.20
2019-02-24T18:17:41.270Z,10.07
2019-02-24T18:20:21.421Z,8.50
2019-02-24T18:22:49.860Z,8.60
2019-02-24T18:25:18.306Z,9.83
2019-02-24T18:27:46.737Z,9.07
2019-02-24T18:30:18.287Z,9.07
2019-02-24T18:32:47.668Z,8.97
2019-02-24T18:35:16.436Z,9.40
2019-02-24T18:37:44.887Z,8.63
2019-02-24T18:40:14.267Z,8.30
2019-02-24T18:42:43.973Z,8.37
2019-02-24T18:45:14.036Z,8.20
2019-02-24T18:47:42.531Z,7.83
2019-02-24T18:50:19.216Z,7.50
2019-02-24T18:52:47.687Z,6.60
2019-02-24T18:55:16.209Z,7.60
2019-02-24T18:57:44.926Z,7.43
2019-02-24T19:00:21.020Z,6.90
2019-02-24T19:02:49.465Z,8.20
2019-02-24T19:05:18.079Z,7.90
2019-02-24T19:07:46.526Z,6.90
2019-02-24T19:10:18.062Z,7.43
2019-02-24T19:12:46.547Z,7.57
2019-02-24T19:15:19.243Z,7.17
2019-02-24T19:17:47.763Z,6.93
2019-02-24T19:20:21.672Z,6.97
2019-02-24T19:22:50.200Z,6.57
2019-02-24T19:25:18.798Z,7.77
2019-02-24T19:27:47.272Z,7.13
2019-02-24T19:30:17.818Z,7.80
2019-02-24T19:32:46.301Z,7.27
2019-02-24T19:35:17.140Z,6.03
2019-02-24T19:37:45.794Z,6.70
2019-02-24T19:40:16.674Z,6.90
2019-02-24T19:42:45.371Z,7.60
2019-02-24T19:45:16.610Z,6.83
2019-02-24T19:47:45.488Z,6.93
2019-02-24T19:50:15.675Z,6.93
2019-02-24T19:52:44.168Z,7.03
2019-02-24T19:55:15.027Z,7.10
2019-02-24T19:57:43.512Z,7.77
2019-02-24T20:00:24.932Z,6.30
2019-02-24T20:02:53.852Z,6.97
2019-02-24T20:05:22.402Z,7.50
2019-02-24T20:07:50.879Z,6.93
2019-02-24T20:10:24.386Z,6.73
2019-02-24T20:12:52.991Z,6.13
2019-02-24T20:15:21.480Z,6.13
2019-02-24T20:17:49.923Z,5.90
2019-02-24T20:20:18.909Z,5.67
2019-02-24T20:22:47.707Z,6.00
2019-02-24T20:25:23.110Z,6.20
2019-02-24T20:27:51.881Z,6.47
2019-02-24T20:30:28.590Z,5.73
2019-02-24T20:32:57.283Z,5.10
2019-02-24T20:35:25.725Z,5.40
2019-02-24T20:37:54.215Z,5.50
2019-02-24T20:40:22.674Z,5.83
2019-02-24T20:42:51.108Z,5.10
2019-02-24T20:45:20.971Z,5.63
2019-02-24T20:47:49.731Z,5.23
2019-02-24T20:50:23.769Z,4.70
2019-02-24T20:52:52.191Z,5.30
2019-02-24T20:55:20.665Z,4.60
2019-02-24T20:57:52.037Z,4.30
2019-02-24T21:00:26.413Z,4.13
2019-02-24T21:02:54.866Z,4.93
2019-02-24T21:05:23.315Z,5.10
2019-02-24T21:07:52.014Z,6.07
2019-02-24T21:10:20.489Z,5.97
2019-02-24T21:12:49.208Z,6.67
2019-02-24T21:15:18.423Z,7.07
2019-02-24T21:17:46.867Z,6.87
2019-02-24T21:20:21.153Z,7.57
2019-02-24T21:22:50.604Z,8.20
2019-02-24T21:25:19.296Z,7.10
2019-02-24T21:27:48.088Z,7.80
2019-02-24T21:30:17.985Z,7.80
2019-02-24T21:32:46.424Z,9.00
2019-02-24T21:35:17.116Z,8.13
2019-02-24T21:37:45.534Z,7.60
2019-02-24T21:40:20.443Z,7.03
2019-02-24T21:42:48.941Z,6.70
2019-02-24T21:45:25.230Z,6.07
2019-02-24T21:47:53.659Z,5.13
2019-02-24T21:50:22.102Z,5.70
2019-02-24T21:52:50.579Z,5.67
2019-02-24T21:55:19.322Z,5.80
2019-02-24T21:57:48.058Z,6.10
2019-02-24T22:00:19.106Z,6.23
2019-02-24T22:02:47.572Z,5.00
2019-02-24T22:05:16.200Z,5.53
2019-02-24T22:07:45.437Z,5.30
2019-02-24T22:10:15.302Z,5.60
2019-02-24T22:12:43.767Z,5.60
2019-02-24T22:15:18.201Z,5.80
2019-02-24T22:17:46.700Z,4.87
2019-02-24T22:20:16.079Z,4.73
2019-02-24T22:22:44.960Z,4.77
2019-02-24T22:25:14.583Z,4.80
2019-02-24T22:27:43.262Z,4.80
2019-02-24T22:30:19.672Z,5.20
2019-02-24T22:32:48.400Z,4.80
2019-02-24T22:35:17.260Z,5.00
2019-02-24T22:37:45.831Z,5.20
2019-02-24T22:40:16.820Z,5.53
2019-02-24T22:42:45.960Z,4.53
2019-02-24T22:45:23.398Z,5.33
2019-02-24T22:47:51.850Z,4.87
2019-02-24T22:50:20.277Z,4.90
2019-02-24T22:52:49.005Z,5.73
2019-02-24T22:55:18.584Z,5.20
2019-02-24T22:57:47.379Z,5.50
2019-02-24T23:00:53.057Z,5.20
2019-02-24T23:03:23.879Z,5.03
2019-02-24T23:05:52.722Z,5.60
2019-02-24T23:08:21.185Z,6.27
2019-02-24T23:10:49.638Z,5.90
2019-02-24T23:13:18.372Z,6.43
2019-02-24T23:15:46.896Z,6.20
2019-02-24T23:18:15.358Z,6.40
2019-02-24T23:20:43.805Z,6.50
2019-02-24T23:23:12.263Z,6.10
2019-02-24T23:25:40.962Z,7.73
2019-02-24T23:28:09.395Z,8.20
2019-02-24T23:30:37.851Z,9.00
2019-02-24T23:33:07.619Z,9.60
2019-02-24T23:35:36.362Z,11.00
2019-02-24T23:38:05.043Z,14.20
2019-02-24T23:40:33.767Z,9.60
2019-02-24T23:43:02.275Z,11.67
2019-02-24T23:45:30.716Z,10.80
2019-02-24T23:47:59.172Z,9.77
2019-02-24T23:50:27.675Z,9.30
2019-02-24T23:52:56.119Z,9.80
2019-02-24T23:55:24.571Z,10.57
2019-02-24T23:57:53.292Z,10.23
